This is the latest recevied weather packets stored in our database for station/object SR5NLK-1. If no packets are shown the sender has not sent any weather packets the latest 10 day(s).
| Time | Temp. | Humidity | Pressure | Rain* | Wind** | Luminosity | Snow |
|---|---|---|---|---|---|---|---|
| 1778129849 | 20° C | 68% | 1046 hPa | 0 mm | - | - | - |
| 1778129668 | 20° C | 69% | 1022.9 hPa | 0 mm | - | - | - |
| 1778129549 | 19.44° C | 73% | 1055.4 hPa | 0 mm | - | - | - |
| 1778129249 | 18.33° C | 78% | 1047.7 hPa | 0 mm | - | - | - |
| 1778128949 | 17.22° C | 80% | 1001 hPa | 0 mm | - | - | - |
| 1778128649 | 16.67° C | 82% | 1012.1 hPa | 0 mm | - | - | - |
| 1778128349 | 16.11° C | 82% | 1036.5 hPa | 0 mm | - | - | - |
| 1778128049 | 15.56° C | 83% | 1058.5 hPa | 0 mm | - | - | - |
| 1778127749 | 15.56° C | 83% | 1046 hPa | 0 mm | - | - | - |
| 1778127688 | 15.56° C | 83% | 962.3 hPa | 0 mm | - | - | - |
| 1778127449 | 15.56° C | 83% | 1055.4 hPa | 0 mm | - | - | - |
| 1778127149 | 15.56° C | 84% | 968.5 hPa | 0 mm | - | - | - |
| 1778126849 | 15° C | 84% | 968.5 hPa | 0 mm | - | - | - |
| 1778126549 | 15° C | 83% | 922.2 hPa | 0 mm | - | - | - |
| 1778126249 | 14.44° C | 83% | 997.9 hPa | 0 mm | - | - | - |
| 1778125980 | 14.44° C | 83% | 968.6 hPa | 0 mm | - | - | - |
| 1778125949 | 14.44° C | 83% | 968.6 hPa | 0 mm | - | - | - |
| 1778125708 | 14.44° C | 83% | 1061.6 hPa | 0 mm | - | - | - |
| 1778125649 | 14.44° C | 83% | 971.7 hPa | 0 mm | - | - | - |
| 1778125349 | 14.44° C | 84% | 982.8 hPa | 0 mm | - | - | - |
| 1778125049 | 14.44° C | 84% | 1055.4 hPa | 0 mm | - | - | - |
| 1778124749 | 13.89° C | 84% | 1001 hPa | 0 mm | - | - | - |
| 1778124454 | 11.11° C | - | - | - | - | - | - |
| 1778124449 | 13.89° C | 83% | 1055.4 hPa | 0 mm | - | - | - |
| 1778124181 | 13.89° C | 83% | 1060.2 hPa | 0 mm | - | - | - |
* Rain latest hour (hover to see other rain measurements)
** Current wind speed in m/s (hover to see current wind gust speed)